createdAt,value
2023-05-24T00:01:20.637Z,16.16
2023-05-24T00:03:47.161Z,16.09
2023-05-24T00:06:13.743Z,16.17
2023-05-24T00:08:40.113Z,16.20
2023-05-24T00:11:06.467Z,15.98
2023-05-24T00:13:32.843Z,15.86
2023-05-24T00:15:59.225Z,15.82
2023-05-24T00:18:25.602Z,15.87
2023-05-24T00:20:52.146Z,15.84
2023-05-24T00:23:18.573Z,15.78
2023-05-24T00:25:44.957Z,15.80
2023-05-24T00:28:11.343Z,15.76
2023-05-24T00:30:37.709Z,15.73
2023-05-24T00:33:04.078Z,15.80
2023-05-24T00:35:30.479Z,15.80
2023-05-24T00:37:56.847Z,15.93
2023-05-24T00:40:23.241Z,16.06
2023-05-24T00:42:49.632Z,16.07
2023-05-24T00:45:15.984Z,16.01
2023-05-24T00:47:42.414Z,16.04
2023-05-24T00:50:08.837Z,16.04
2023-05-24T00:52:35.184Z,16.02
2023-05-24T00:55:01.553Z,16.04
2023-05-24T00:57:27.930Z,15.93
2023-05-24T00:59:54.299Z,15.84
2023-05-24T01:02:20.774Z,15.89
2023-05-24T01:04:47.241Z,15.98
2023-05-24T01:07:13.589Z,15.88
2023-05-24T01:09:39.928Z,15.92
2023-05-24T01:12:06.305Z,15.97
2023-05-24T01:14:32.664Z,15.78
2023-05-24T01:16:59.035Z,15.71
2023-05-24T01:19:25.395Z,15.78
2023-05-24T01:21:51.775Z,15.66
2023-05-24T01:24:18.153Z,15.58
2023-05-24T01:26:44.495Z,15.61
2023-05-24T01:29:10.870Z,15.72
2023-05-24T01:31:37.258Z,15.69
2023-05-24T01:34:03.672Z,15.63
2023-05-24T01:36:30.072Z,15.51
2023-05-24T01:38:56.433Z,15.54
2023-05-24T01:41:22.798Z,15.61
2023-05-24T01:43:49.174Z,15.65
2023-05-24T01:46:15.597Z,15.61
2023-05-24T01:48:41.977Z,15.67
2023-05-24T01:51:08.369Z,15.73
2023-05-24T01:53:34.747Z,15.54
2023-05-24T01:56:01.133Z,15.60
2023-05-24T01:58:27.490Z,15.70
2023-05-24T02:00:53.902Z,15.65
2023-05-24T02:03:20.322Z,15.58
2023-05-24T02:05:46.884Z,15.57
2023-05-24T02:08:13.245Z,15.58
2023-05-24T02:10:39.748Z,15.48
2023-05-24T02:13:06.187Z,15.35
2023-05-24T02:15:32.541Z,15.42
2023-05-24T02:17:58.962Z,15.47
2023-05-24T02:20:25.445Z,15.36
2023-05-24T02:22:51.847Z,15.30
2023-05-24T02:25:18.204Z,15.33
2023-05-24T02:27:44.550Z,15.23
2023-05-24T02:30:10.914Z,15.17
2023-05-24T02:32:37.320Z,15.21
2023-05-24T02:35:03.694Z,15.26
2023-05-24T02:37:30.063Z,15.34
2023-05-24T02:39:56.425Z,15.33
2023-05-24T02:42:22.788Z,15.24
2023-05-24T02:44:49.160Z,15.08
2023-05-24T02:47:15.548Z,15.23
2023-05-24T02:49:41.897Z,15.25
2023-05-24T02:52:08.271Z,15.21
2023-05-24T02:54:34.648Z,15.21
2023-05-24T02:57:01.020Z,15.23
2023-05-24T02:59:27.394Z,15.16
2023-05-24T03:01:53.804Z,15.21
2023-05-24T03:04:20.166Z,15.19
2023-05-24T03:06:46.538Z,15.18
2023-05-24T03:09:12.893Z,15.02
2023-05-24T03:11:39.265Z,14.99
2023-05-24T03:14:05.636Z,15.04
2023-05-24T03:16:32.112Z,15.16
2023-05-24T03:18:58.616Z,15.23
2023-05-24T03:21:25.018Z,15.19
2023-05-24T03:23:51.424Z,15.27
2023-05-24T03:26:17.783Z,15.19
2023-05-24T03:28:44.134Z,15.25
2023-05-24T03:31:10.541Z,15.26
2023-05-24T03:33:36.965Z,15.30
2023-05-24T03:36:03.351Z,15.32
2023-05-24T03:38:29.714Z,15.22
2023-05-24T03:40:56.070Z,15.18
2023-05-24T03:43:22.537Z,15.25
2023-05-24T03:45:48.943Z,15.19
2023-05-24T03:48:15.349Z,15.25
2023-05-24T03:50:41.945Z,15.30
2023-05-24T03:53:08.476Z,15.28
2023-05-24T03:55:34.861Z,15.23
2023-05-24T03:58:01.211Z,15.26
2023-05-24T04:00:27.575Z,15.25
2023-05-24T04:02:53.993Z,15.09
2023-05-24T04:05:20.382Z,15.27
2023-05-24T04:07:46.787Z,15.28
2023-05-24T04:10:13.153Z,15.23
2023-05-24T04:12:39.528Z,15.07
2023-05-24T04:15:05.909Z,15.14
2023-05-24T04:17:32.459Z,15.11
2023-05-24T04:19:58.947Z,15.16
2023-05-24T04:22:25.906Z,15.18
2023-05-24T04:24:52.382Z,15.19
2023-05-24T04:27:18.792Z,15.23
2023-05-24T04:29:45.159Z,15.19
2023-05-24T04:32:11.516Z,15.21
2023-05-24T04:34:37.869Z,15.14
2023-05-24T04:37:04.247Z,15.12
2023-05-24T04:39:30.634Z,15.01
2023-05-24T04:41:57.011Z,15.07
2023-05-24T04:44:23.397Z,15.00
2023-05-24T04:46:49.821Z,15.00
2023-05-24T04:49:16.206Z,14.94
2023-05-24T04:51:42.584Z,15.17
2023-05-24T04:54:09.350Z,15.27
2023-05-24T04:56:35.837Z,15.18
2023-05-24T04:59:02.173Z,15.16
2023-05-24T05:01:28.683Z,15.06
2023-05-24T05:03:55.167Z,15.15
2023-05-24T05:06:21.583Z,15.15
2023-05-24T05:08:47.934Z,15.28
2023-05-24T05:11:14.297Z,15.12
2023-05-24T05:13:40.661Z,15.21
2023-05-24T05:16:07.039Z,15.23
2023-05-24T05:18:33.396Z,15.20
2023-05-24T05:20:59.756Z,15.22
2023-05-24T05:23:26.123Z,15.28
2023-05-24T05:25:52.469Z,15.36
2023-05-24T05:28:18.844Z,15.26
2023-05-24T05:30:45.235Z,15.31
2023-05-24T05:33:11.748Z,15.30
2023-05-24T05:35:38.235Z,15.16
2023-05-24T05:38:04.620Z,15.18
2023-05-24T05:40:31.077Z,15.18
2023-05-24T05:42:57.433Z,15.30
2023-05-24T05:45:23.815Z,15.25
2023-05-24T05:47:50.194Z,15.32
2023-05-24T05:50:16.617Z,15.40
2023-05-24T05:52:42.985Z,15.51
2023-05-24T05:55:09.342Z,15.46
2023-05-24T05:57:35.720Z,15.42
2023-05-24T06:00:02.104Z,15.43
2023-05-24T06:02:28.613Z,15.40
2023-05-24T06:04:55.146Z,15.11
2023-05-24T06:07:21.608Z,15.21
2023-05-24T06:09:47.985Z,14.93
2023-05-24T06:12:14.394Z,15.05
2023-05-24T06:14:40.760Z,15.16
2023-05-24T06:17:07.140Z,15.26
2023-05-24T06:19:33.502Z,15.25
2023-05-24T06:21:59.895Z,15.34
2023-05-24T06:24:26.287Z,15.25
2023-05-24T06:26:52.686Z,15.24
2023-05-24T06:29:19.044Z,15.27
2023-05-24T06:31:45.477Z,15.14
2023-05-24T06:34:11.877Z,15.25
2023-05-24T06:36:38.248Z,15.32
2023-05-24T06:39:04.627Z,15.44
2023-05-24T06:41:31.014Z,15.25
2023-05-24T06:43:58.434Z,15.37
2023-05-24T06:46:24.826Z,15.58
2023-05-24T06:48:51.303Z,15.57
2023-05-24T06:51:17.722Z,15.73
2023-05-24T06:53:44.113Z,15.69
2023-05-24T06:56:10.474Z,15.78
2023-05-24T06:58:36.830Z,15.83
2023-05-24T07:01:03.235Z,15.87
2023-05-24T07:03:29.627Z,16.01
2023-05-24T07:05:56.012Z,15.84
2023-05-24T07:08:22.413Z,15.63
2023-05-24T07:10:48.826Z,15.66
2023-05-24T07:13:15.200Z,15.76
2023-05-24T07:15:41.585Z,15.78
2023-05-24T07:18:08.073Z,15.75
2023-05-24T07:20:34.575Z,15.73
2023-05-24T07:23:01.002Z,15.90
2023-05-24T07:25:27.366Z,15.93
2023-05-24T07:27:53.737Z,16.04
2023-05-24T07:30:31.010Z,16.03
2023-05-24T07:32:58.529Z,16.16
2023-05-24T07:35:24.912Z,16.17
2023-05-24T07:37:51.285Z,16.30
2023-05-24T07:40:17.664Z,16.26
2023-05-24T07:42:44.054Z,16.29
2023-05-24T07:45:10.470Z,16.27
2023-05-24T07:47:37.032Z,16.27
2023-05-24T07:50:03.484Z,16.40
2023-05-24T07:52:29.893Z,16.53
2023-05-24T07:54:56.342Z,16.56
2023-05-24T07:57:22.718Z,16.41
2023-05-24T07:59:49.096Z,16.57
2023-05-24T08:02:15.492Z,16.50
2023-05-24T08:04:41.861Z,16.48
2023-05-24T08:07:10.773Z,16.15
2023-05-24T08:09:37.411Z,16.14
2023-05-24T08:12:03.789Z,16.17
2023-05-24T08:14:30.153Z,16.12
2023-05-24T08:16:56.533Z,16.22
2023-05-24T08:19:22.900Z,16.11
2023-05-24T08:21:49.270Z,16.10
2023-05-24T08:24:15.641Z,16.20
2023-05-24T08:26:42.014Z,16.18
2023-05-24T08:29:08.373Z,16.05
2023-05-24T08:31:34.796Z,15.97
2023-05-24T08:34:01.579Z,15.93
2023-05-24T08:36:27.944Z,16.07
2023-05-24T08:38:54.329Z,15.99
2023-05-24T08:41:20.703Z,16.12
2023-05-24T08:43:47.074Z,16.16
2023-05-24T08:46:13.493Z,16.15
2023-05-24T08:48:39.957Z,16.19
2023-05-24T08:51:06.329Z,16.27
2023-05-24T08:53:32.690Z,16.15
2023-05-24T08:55:59.056Z,16.01
2023-05-24T08:58:25.434Z,15.87
2023-05-24T09:00:51.834Z,15.75
2023-05-24T09:03:18.278Z,16.12
2023-05-24T09:05:44.875Z,16.18
2023-05-24T09:08:11.433Z,16.27
2023-05-24T09:10:49.303Z,16.16
2023-05-24T09:13:19.102Z,16.37
2023-05-24T09:15:45.595Z,16.59
2023-05-24T09:18:12.254Z,16.70
2023-05-24T09:20:38.766Z,16.72
2023-05-24T09:23:05.194Z,16.66
2023-05-24T09:25:31.545Z,16.76
2023-05-24T09:27:57.960Z,16.46
2023-05-24T09:30:24.309Z,16.68
2023-05-24T09:32:50.686Z,16.85
2023-05-24T09:35:17.079Z,16.67
2023-05-24T09:37:43.444Z,16.79
2023-05-24T09:40:09.808Z,16.84
2023-05-24T09:42:36.182Z,16.83
2023-05-24T09:45:02.572Z,16.86
2023-05-24T09:47:28.989Z,17.03
2023-05-24T09:49:55.353Z,17.10
2023-05-24T09:52:21.771Z,17.12
2023-05-24T09:54:48.330Z,17.21
2023-05-24T09:57:14.689Z,17.40
2023-05-24T09:59:41.081Z,17.50
2023-05-24T10:02:07.497Z,17.66
2023-05-24T10:04:33.971Z,17.75
2023-05-24T10:07:00.369Z,17.75
2023-05-24T10:09:26.759Z,17.57
2023-05-24T10:11:53.143Z,17.69
2023-05-24T10:14:19.514Z,17.80
2023-05-24T10:16:45.911Z,17.86
2023-05-24T10:19:12.318Z,18.01
2023-05-24T10:21:38.709Z,17.85
2023-05-24T10:24:06.310Z,17.79
2023-05-24T10:26:33.284Z,17.73
2023-05-24T10:28:59.653Z,17.89
2023-05-24T10:31:26.066Z,17.93
2023-05-24T10:33:52.638Z,17.99
2023-05-24T10:36:20.784Z,18.00
2023-05-24T10:38:47.169Z,17.87
2023-05-24T10:41:13.602Z,17.68
2023-05-24T10:43:40.096Z,17.76
2023-05-24T10:46:06.542Z,17.86
2023-05-24T10:48:32.934Z,17.87
2023-05-24T10:50:59.322Z,17.97
2023-05-24T10:53:25.686Z,18.02
2023-05-24T10:55:52.114Z,18.11
2023-05-24T10:58:18.493Z,18.19
2023-05-24T11:00:44.855Z,18.08
2023-05-24T11:03:11.333Z,18.32
2023-05-24T11:05:37.934Z,18.38
2023-05-24T11:08:04.410Z,18.55
2023-05-24T11:10:30.762Z,18.56
2023-05-24T11:12:57.140Z,18.78
2023-05-24T11:15:23.497Z,18.89
2023-05-24T11:17:49.920Z,18.85
2023-05-24T11:20:16.372Z,18.92
2023-05-24T11:22:42.863Z,18.83
2023-05-24T11:25:09.273Z,19.11
2023-05-24T11:27:35.664Z,18.84
2023-05-24T11:30:02.025Z,19.05
2023-05-24T11:32:28.422Z,19.04
2023-05-24T11:34:54.810Z,18.88
2023-05-24T11:37:28.628Z,18.83
2023-05-24T11:40:01.485Z,18.69
2023-05-24T11:42:27.866Z,18.83
2023-05-24T11:44:54.253Z,18.89
2023-05-24T11:47:20.641Z,18.79
2023-05-24T11:49:47.013Z,18.75
2023-05-24T11:52:13.385Z,18.77
2023-05-24T11:54:39.761Z,18.75
2023-05-24T11:57:06.225Z,18.70
2023-05-24T11:59:32.718Z,18.47
2023-05-24T12:01:59.127Z,18.68
2023-05-24T12:04:25.696Z,18.80
2023-05-24T12:06:52.188Z,18.98
2023-05-24T12:09:23.239Z,19.07
2023-05-24T12:11:49.613Z,18.90
2023-05-24T12:14:19.902Z,18.83
2023-05-24T12:21:56.049Z,18.74
2023-05-24T12:24:22.432Z,18.71
2023-05-24T12:26:48.818Z,18.59
2023-05-24T12:29:15.171Z,18.88
2023-05-24T12:31:41.619Z,18.98
2023-05-24T12:34:08.068Z,19.21
2023-05-24T12:36:34.457Z,19.21
2023-05-24T12:39:00.823Z,19.20
2023-05-24T12:41:27.201Z,19.26
2023-05-24T12:43:53.573Z,19.19
2023-05-24T12:46:19.958Z,19.04
2023-05-24T12:48:46.331Z,19.03
2023-05-24T12:51:12.691Z,19.00
2023-05-24T12:53:39.071Z,19.02
2023-05-24T12:56:05.455Z,18.81
2023-05-24T12:58:31.842Z,19.06
2023-05-24T13:00:58.297Z,18.79
2023-05-24T13:03:24.678Z,18.93
2023-05-24T13:05:51.068Z,19.23
2023-05-24T13:08:17.456Z,19.22
2023-05-24T13:10:44.050Z,19.26
2023-05-24T13:13:10.606Z,19.31
2023-05-24T13:15:36.988Z,19.31
2023-05-24T13:18:03.410Z,19.26
2023-05-24T13:20:29.846Z,19.15
2023-05-24T13:22:56.253Z,19.33
2023-05-24T13:25:22.731Z,19.43
2023-05-24T13:27:49.166Z,19.39
2023-05-24T13:30:15.539Z,19.48
2023-05-24T13:32:41.957Z,19.34
2023-05-24T13:35:08.759Z,19.29
2023-05-24T13:37:35.211Z,19.32
2023-05-24T13:40:01.576Z,19.14
2023-05-24T13:42:28.160Z,18.98
2023-05-24T13:44:54.673Z,18.69
2023-05-24T13:47:31.105Z,18.48
2023-05-24T13:50:05.466Z,18.33
2023-05-24T13:52:31.824Z,18.35
2023-05-24T13:54:58.198Z,18.38
2023-05-24T13:57:27.775Z,18.31
2023-05-24T13:59:57.775Z,18.37
2023-05-24T14:02:24.197Z,18.25
2023-05-24T14:04:50.623Z,18.22
2023-05-24T14:07:17.040Z,18.32
2023-05-24T14:09:43.412Z,18.31
2023-05-24T14:12:09.761Z,18.36
2023-05-24T14:14:59.339Z,18.38
2023-05-24T14:17:22.430Z,18.29
2023-05-24T14:19:48.845Z,18.36
2023-05-24T14:22:15.218Z,18.55
2023-05-24T14:24:41.594Z,18.62
2023-05-24T14:27:07.952Z,18.66
2023-05-24T14:29:34.309Z,18.77
2023-05-24T14:32:00.725Z,18.77
2023-05-24T14:34:27.085Z,18.58
2023-05-24T14:36:53.526Z,18.42
2023-05-24T14:39:19.898Z,18.25
2023-05-24T14:41:46.260Z,17.96
2023-05-24T14:44:12.610Z,17.90
2023-05-24T14:46:39.061Z,17.98
2023-05-24T14:49:05.456Z,18.04
2023-05-24T14:51:31.825Z,18.10
2023-05-24T14:53:58.187Z,18.00
2023-05-24T14:56:24.540Z,18.07
2023-05-24T14:58:51.579Z,18.05
2023-05-24T15:01:19.119Z,18.17
2023-05-24T15:03:45.595Z,18.19
2023-05-24T15:06:11.986Z,18.24
2023-05-24T15:08:38.339Z,18.35
2023-05-24T15:11:04.706Z,18.22
2023-05-24T15:13:31.077Z,18.08
2023-05-24T15:15:57.433Z,18.12
2023-05-24T15:18:23.792Z,18.07
2023-05-24T15:20:50.266Z,17.94
2023-05-24T15:23:16.677Z,17.86
2023-05-24T15:25:43.068Z,18.02
2023-05-24T15:28:09.469Z,17.84
2023-05-24T15:30:35.950Z,17.72
2023-05-24T15:33:02.352Z,17.81
2023-05-24T15:35:28.773Z,17.80
2023-05-24T15:37:55.143Z,17.70
2023-05-24T15:40:23.304Z,17.55
2023-05-24T15:42:50.398Z,17.36
2023-05-24T15:45:16.782Z,17.26
2023-05-24T15:47:43.203Z,17.45
2023-05-24T15:50:09.610Z,17.66
2023-05-24T15:52:35.995Z,17.64
2023-05-24T15:55:02.375Z,17.42
2023-05-24T15:57:28.745Z,17.37
2023-05-24T15:59:55.112Z,17.26
2023-05-24T16:02:21.707Z,17.31
2023-05-24T16:04:48.140Z,17.40
2023-05-24T16:07:14.526Z,17.40
2023-05-24T16:09:40.941Z,17.23
2023-05-24T16:12:07.347Z,17.23
2023-05-24T16:14:33.742Z,17.40
2023-05-24T16:17:01.598Z,17.24
2023-05-24T16:19:31.087Z,17.14
2023-05-24T16:21:57.466Z,17.24
2023-05-24T16:24:23.834Z,17.31
2023-05-24T16:26:50.189Z,17.24
2023-05-24T16:29:16.578Z,17.23
2023-05-24T16:31:42.948Z,16.94
2023-05-24T16:34:09.313Z,16.87
2023-05-24T16:36:35.658Z,16.62
2023-05-24T16:39:02.013Z,16.72
2023-05-24T16:41:28.409Z,16.82
2023-05-24T16:43:54.768Z,16.71
2023-05-24T16:46:21.322Z,16.53
2023-05-24T16:48:47.798Z,16.60
2023-05-24T16:51:14.217Z,16.50
2023-05-24T16:53:40.738Z,16.49
2023-05-24T16:56:07.119Z,16.33
2023-05-24T16:58:33.484Z,16.40
2023-05-24T17:00:59.850Z,16.46
2023-05-24T17:03:26.309Z,16.47
2023-05-24T17:05:52.745Z,16.58
2023-05-24T17:08:21.938Z,16.57
2023-05-24T17:10:48.515Z,16.78
2023-05-24T17:13:14.917Z,16.77
2023-05-24T17:15:41.340Z,16.77
2023-05-24T17:18:07.859Z,16.98
2023-05-24T17:20:34.288Z,17.04
2023-05-24T17:23:00.723Z,17.26
2023-05-24T17:25:27.090Z,17.10
2023-05-24T17:27:53.439Z,17.11
2023-05-24T17:30:19.821Z,17.14
2023-05-24T17:32:46.243Z,16.98
2023-05-24T17:35:12.614Z,17.08
2023-05-24T17:37:38.985Z,16.91
2023-05-24T17:40:05.335Z,16.72
2023-05-24T17:42:31.709Z,16.80
2023-05-24T17:44:58.094Z,16.89
2023-05-24T17:47:24.473Z,16.94
2023-05-24T17:49:50.917Z,17.08
2023-05-24T17:52:17.329Z,17.16
2023-05-24T17:54:43.688Z,17.10
2023-05-24T17:57:10.103Z,16.94
2023-05-24T17:59:36.485Z,16.99
2023-05-24T18:02:02.872Z,16.88
2023-05-24T18:04:29.266Z,16.73
2023-05-24T18:06:55.655Z,16.62
2023-05-24T18:09:22.034Z,16.58
2023-05-24T18:11:48.402Z,16.34
2023-05-24T18:14:14.827Z,16.41
2023-05-24T18:16:41.294Z,16.31
2023-05-24T18:19:07.709Z,16.17
2023-05-24T18:21:34.118Z,16.07
2023-05-24T18:24:00.507Z,15.98
2023-05-24T18:26:26.894Z,15.86
2023-05-24T18:28:53.247Z,15.87
2023-05-24T18:31:19.629Z,15.56
2023-05-24T18:33:46.090Z,15.40
2023-05-24T18:36:12.574Z,15.49
2023-05-24T18:38:39.114Z,15.39
2023-05-24T18:41:06.461Z,15.23
2023-05-24T18:43:33.061Z,15.26
2023-05-24T18:45:59.449Z,15.36
2023-05-24T18:48:25.821Z,15.30
2023-05-24T18:50:52.185Z,15.33
2023-05-24T18:53:18.541Z,15.17
2023-05-24T18:55:45.124Z,15.15
2023-05-24T18:58:11.706Z,15.14
2023-05-24T19:00:38.149Z,14.94
2023-05-24T19:03:04.637Z,15.02
2023-05-24T19:05:31.010Z,15.02
2023-05-24T19:07:57.368Z,15.08
2023-05-24T19:10:23.741Z,15.05
2023-05-24T19:12:50.173Z,14.77
2023-05-24T19:15:16.586Z,14.87
2023-05-24T19:17:42.992Z,14.68
2023-05-24T19:20:09.406Z,14.78
2023-05-24T19:22:35.819Z,14.81
2023-05-24T19:25:02.205Z,14.52
2023-05-24T19:27:28.576Z,14.59
2023-05-24T19:29:54.937Z,14.53
2023-05-24T19:32:21.466Z,14.48
2023-05-24T19:34:47.946Z,14.57
2023-05-24T19:37:14.328Z,14.65
2023-05-24T19:39:40.699Z,14.50
2023-05-24T19:42:07.070Z,14.42
2023-05-24T19:44:33.437Z,14.29
2023-05-24T19:46:59.807Z,14.29
2023-05-24T19:49:26.174Z,14.29
2023-05-24T19:51:52.544Z,14.31
2023-05-24T19:54:18.923Z,14.28
2023-05-24T19:56:45.284Z,14.40
2023-05-24T19:59:11.658Z,14.48
2023-05-24T20:01:38.076Z,14.42
2023-05-24T20:04:04.654Z,14.27
2023-05-24T20:06:31.101Z,14.00
2023-05-24T20:08:57.493Z,13.97
2023-05-24T20:11:23.845Z,13.95
2023-05-24T20:13:50.226Z,13.68
2023-05-24T20:16:16.677Z,13.77
2023-05-24T20:18:43.071Z,13.82
2023-05-24T20:21:09.462Z,13.82
2023-05-24T20:23:35.822Z,13.78
2023-05-24T20:26:02.198Z,13.73
2023-05-24T20:28:31.293Z,13.77
2023-05-24T20:30:58.432Z,13.74
2023-05-24T20:33:24.847Z,13.75
2023-05-24T20:35:51.200Z,13.73
2023-05-24T20:38:17.601Z,13.77
2023-05-24T20:40:43.981Z,13.74
2023-05-24T20:43:10.358Z,13.54
2023-05-24T20:45:36.799Z,13.70
2023-05-24T20:48:03.243Z,13.73
2023-05-24T20:50:29.665Z,13.68
2023-05-24T20:52:56.048Z,13.63
2023-05-24T20:55:23.971Z,13.58
2023-05-24T20:57:51.578Z,13.66
2023-05-24T21:00:17.930Z,13.69
2023-05-24T21:02:44.414Z,13.63
2023-05-24T21:05:10.872Z,13.51
2023-05-24T21:07:37.247Z,13.45
2023-05-24T21:10:03.633Z,13.46
2023-05-24T21:12:29.986Z,13.35
2023-05-24T21:14:56.361Z,13.23
2023-05-24T21:17:22.886Z,13.30
2023-05-24T21:19:49.437Z,13.05
2023-05-24T21:22:15.866Z,13.06
2023-05-24T21:24:42.257Z,13.20
2023-05-24T21:27:08.629Z,13.04
2023-05-24T21:29:35.024Z,13.03
2023-05-24T21:32:01.385Z,12.88
2023-05-24T21:34:27.746Z,12.78
2023-05-24T21:36:54.105Z,12.72
2023-05-24T21:39:20.464Z,12.86
2023-05-24T21:41:46.843Z,12.88
2023-05-24T21:44:13.198Z,12.83
2023-05-24T21:46:39.591Z,12.92
2023-05-24T21:49:05.989Z,12.87
2023-05-24T21:51:32.372Z,12.89
2023-05-24T21:53:58.739Z,12.81
2023-05-24T21:56:25.112Z,12.75
2023-05-24T21:58:51.526Z,12.67
2023-05-24T22:01:17.935Z,12.54
2023-05-24T22:03:44.494Z,12.51
2023-05-24T22:06:11.034Z,12.61
2023-05-24T22:08:37.405Z,12.42
2023-05-24T22:11:03.854Z,12.31
2023-05-24T22:13:30.269Z,12.41
2023-05-24T22:15:56.717Z,12.52
2023-05-24T22:18:23.169Z,12.50
2023-05-24T22:20:49.556Z,12.68
2023-05-24T22:23:15.924Z,12.70
2023-05-24T22:25:42.436Z,12.80
2023-05-24T22:28:09.567Z,12.81
2023-05-24T22:30:36.058Z,12.83
2023-05-24T22:33:02.469Z,12.91
2023-05-24T22:35:28.875Z,12.88
2023-05-24T22:37:55.264Z,12.93
2023-05-24T22:40:21.621Z,12.97
2023-05-24T22:42:47.977Z,12.89
2023-05-24T22:45:14.355Z,12.92
2023-05-24T22:47:40.762Z,12.66
2023-05-24T22:50:07.117Z,12.76
2023-05-24T22:52:33.517Z,12.87
2023-05-24T22:54:59.893Z,12.98
2023-05-24T22:57:26.258Z,12.97
2023-05-24T22:59:52.643Z,12.91
2023-05-24T23:02:19.021Z,12.84
2023-05-24T23:04:45.417Z,12.82
2023-05-24T23:07:11.810Z,12.82
2023-05-24T23:09:38.164Z,12.77
2023-05-24T23:12:04.568Z,12.61
2023-05-24T23:14:30.933Z,12.57
2023-05-24T23:16:57.341Z,12.45
2023-05-24T23:19:23.711Z,12.47
2023-05-24T23:21:50.095Z,12.37
2023-05-24T23:24:16.505Z,12.49
2023-05-24T23:26:42.875Z,12.31
2023-05-24T23:29:09.356Z,12.26
2023-05-24T23:31:35.861Z,12.19
2023-05-24T23:34:02.267Z,12.23
2023-05-24T23:36:28.631Z,12.22
2023-05-24T23:38:55.026Z,12.28
2023-05-24T23:41:21.406Z,12.16
2023-05-24T23:43:47.762Z,12.23
2023-05-24T23:46:14.189Z,12.13
2023-05-24T23:48:40.590Z,12.23
2023-05-24T23:51:07.003Z,12.29
2023-05-24T23:53:33.367Z,12.19
2023-05-24T23:55:59.731Z,12.28
2023-05-24T23:58:26.085Z,12.27
